createdAt,value
2023-05-02T00:02:23.230Z,4.20
2023-05-02T00:04:50.997Z,1.00
2023-05-02T00:07:18.589Z,4.00
2023-05-02T00:09:46.163Z,5.20
2023-05-02T00:12:13.736Z,7.20
2023-05-02T00:14:41.167Z,9.60
2023-05-02T00:17:08.784Z,7.00
2023-05-02T00:19:42.375Z,7.60
2023-05-02T00:22:09.828Z,5.20
2023-05-02T00:24:37.395Z,2.80
2023-05-02T00:27:05.443Z,7.00
2023-05-02T00:29:33.288Z,3.20
2023-05-02T00:32:00.945Z,2.40
2023-05-02T00:34:32.028Z,5.40
2023-05-02T00:36:59.541Z,4.00
2023-05-02T00:39:26.934Z,4.00
2023-05-02T00:41:58.487Z,10.20
2023-05-02T00:44:26.199Z,10.00
2023-05-02T00:46:54.008Z,7.00
2023-05-02T00:49:21.630Z,7.00
2023-05-02T00:51:49.322Z,5.40
2023-05-02T00:54:16.623Z,6.00
2023-05-02T00:56:44.140Z,5.20
2023-05-02T00:59:12.565Z,8.80
2023-05-02T01:02:12.027Z,5.00
2023-05-02T01:05:18.693Z,4.00
2023-05-02T01:08:36.025Z,7.20
2023-05-02T01:11:17.752Z,7.80
2023-05-02T01:13:47.238Z,8.60
2023-05-02T01:16:19.274Z,4.40
2023-05-02T01:18:48.516Z,8.40
2023-05-02T01:21:16.189Z,5.20
2023-05-02T01:24:03.337Z,9.20
2023-05-02T01:26:35.936Z,5.00
2023-05-02T01:29:08.884Z,8.40
2023-05-02T01:31:42.341Z,5.00
2023-05-02T01:34:11.554Z,2.00
2023-05-02T01:36:44.052Z,8.60
2023-05-02T01:39:19.562Z,5.60
2023-05-02T01:41:51.769Z,9.40
2023-05-02T01:44:22.076Z,5.80
2023-05-02T01:46:52.288Z,9.60
2023-05-02T01:49:21.222Z,6.00
2023-05-02T01:51:50.957Z,4.80
2023-05-02T01:54:21.299Z,5.00
2023-05-02T01:56:49.524Z,6.80
2023-05-02T01:59:20.277Z,4.60
2023-05-02T02:01:50.579Z,3.80
2023-05-02T02:04:21.477Z,4.00
2023-05-02T02:06:54.117Z,3.40
2023-05-02T02:09:22.222Z,5.60
2023-05-02T02:11:54.046Z,6.20
2023-05-02T02:14:25.430Z,6.20
2023-05-02T02:16:57.917Z,5.00
2023-05-02T02:19:25.759Z,5.00
2023-05-02T02:21:57.785Z,4.40
2023-05-02T02:24:27.258Z,6.80
2023-05-02T02:26:54.783Z,5.20
2023-05-02T02:29:22.380Z,4.80
2023-05-02T02:31:49.834Z,4.00
2023-05-02T02:34:17.364Z,4.80
2023-05-02T02:36:57.453Z,4.60
2023-05-02T02:39:40.143Z,3.60
2023-05-02T02:42:23.559Z,8.60
2023-05-02T02:45:09.511Z,4.60
2023-05-02T02:48:06.881Z,4.20
2023-05-02T02:50:57.786Z,4.40
2023-05-02T02:53:32.958Z,5.40
2023-05-02T02:56:06.480Z,4.00
2023-05-02T02:58:36.767Z,6.60
2023-05-02T03:01:06.864Z,6.00
2023-05-02T03:03:36.088Z,2.40
2023-05-02T03:06:05.091Z,4.00
2023-05-02T03:08:43.244Z,5.00
2023-05-02T03:11:15.622Z,6.60
2023-05-02T03:13:43.257Z,5.60
2023-05-02T03:16:33.387Z,2.80
2023-05-02T03:19:01.924Z,2.80
2023-05-02T03:21:31.862Z,4.40
2023-05-02T03:24:05.681Z,4.00
2023-05-02T03:26:33.499Z,4.20
2023-05-02T03:29:01.426Z,4.20
2023-05-02T03:31:34.692Z,4.40
2023-05-02T03:34:02.690Z,8.60
2023-05-02T03:36:30.126Z,5.00
2023-05-02T03:38:57.991Z,5.40
2023-05-02T03:41:26.115Z,5.60
2023-05-02T03:44:01.115Z,5.60
2023-05-02T03:46:29.444Z,5.00
2023-05-02T03:49:00.405Z,3.20
2023-05-02T03:51:28.265Z,4.00
2023-05-02T03:53:58.597Z,4.80
2023-05-02T03:56:26.494Z,1.20
2023-05-02T03:59:12.287Z,6.60
2023-05-02T04:01:40.113Z,2.00
2023-05-02T04:04:09.232Z,5.00
2023-05-02T04:06:42.751Z,6.40
2023-05-02T04:09:10.643Z,5.40
2023-05-02T04:11:48.585Z,2.40
2023-05-02T04:14:16.248Z,7.00
2023-05-02T04:16:51.802Z,9.00
2023-05-02T04:19:29.744Z,1.00
2023-05-02T04:21:57.076Z,6.60
2023-05-02T04:24:25.815Z,4.00
2023-05-02T04:26:53.462Z,3.00
2023-05-02T04:29:20.850Z,1.60
2023-05-02T04:31:49.468Z,7.80
2023-05-02T04:34:17.178Z,5.00
2023-05-02T04:36:47.064Z,11.60
2023-05-02T04:39:19.497Z,6.40
2023-05-02T04:41:56.896Z,5.60
2023-05-02T04:44:26.895Z,7.00
2023-05-02T04:46:55.995Z,2.40
2023-05-02T04:49:23.303Z,6.60
2023-05-02T04:51:52.331Z,8.20
2023-05-02T04:54:20.400Z,1.00
2023-05-02T04:56:48.014Z,3.00
2023-05-02T04:59:17.271Z,6.00
2023-05-02T05:01:45.634Z,3.60
2023-05-02T05:04:13.271Z,4.60
2023-05-02T05:06:41.039Z,7.60
2023-05-02T05:09:08.992Z,6.60
2023-05-02T05:11:38.958Z,3.20
2023-05-02T05:14:07.381Z,4.00
2023-05-02T05:16:38.458Z,4.00
2023-05-02T05:19:06.160Z,4.40
2023-05-02T05:21:33.816Z,6.80
2023-05-02T05:24:03.167Z,3.00
2023-05-02T05:26:30.597Z,5.40
2023-05-02T05:28:58.802Z,5.00
2023-05-02T05:31:30.750Z,5.40
2023-05-02T05:34:02.596Z,2.40
2023-05-02T05:36:31.743Z,4.60
2023-05-02T05:38:59.459Z,3.40
2023-05-02T05:41:27.319Z,6.40
2023-05-02T05:44:01.527Z,4.80
2023-05-02T05:46:31.703Z,3.00
2023-05-02T05:49:00.596Z,8.20
2023-05-02T05:51:29.719Z,5.00
2023-05-02T05:53:59.556Z,5.40
2023-05-02T05:56:27.830Z,5.50
2023-05-02T05:59:02.171Z,4.75
2023-05-02T06:01:29.625Z,6.25
2023-05-02T06:03:57.757Z,4.50
2023-05-02T06:06:27.740Z,4.75
2023-05-02T06:08:55.354Z,5.50
2023-05-02T06:11:24.772Z,7.25
2023-05-02T06:13:53.374Z,7.00
2023-05-02T06:16:21.239Z,6.25
2023-05-02T06:18:52.922Z,6.50
2023-05-02T06:21:20.707Z,7.50
2023-05-02T06:23:48.329Z,3.50
2023-05-02T06:26:16.002Z,3.75
2023-05-02T06:28:44.646Z,4.00
2023-05-02T06:31:12.377Z,3.50
2023-05-02T06:33:40.385Z,3.75
2023-05-02T06:36:08.285Z,5.00
2023-05-02T06:38:35.997Z,4.75
2023-05-02T06:41:03.558Z,1.75
2023-05-02T06:43:31.122Z,5.00
2023-05-02T06:45:59.138Z,7.25
2023-05-02T06:48:26.675Z,2.50
2023-05-02T06:50:56.764Z,2.75
2023-05-02T06:53:24.396Z,3.50
2023-05-02T06:55:54.008Z,5.00
2023-05-02T06:58:21.687Z,5.50
2023-05-02T07:00:50.699Z,3.75
2023-05-02T07:03:18.673Z,5.25
2023-05-02T07:05:46.163Z,7.50
2023-05-02T07:08:13.713Z,6.75
2023-05-02T07:10:41.498Z,3.25
2023-05-02T07:13:09.193Z,3.50
2023-05-02T07:15:36.703Z,5.00
2023-05-02T07:18:04.504Z,7.25
2023-05-02T07:20:32.566Z,7.00
2023-05-02T07:22:59.885Z,6.75
2023-05-02T07:25:27.579Z,4.75
2023-05-02T07:27:54.798Z,9.00
2023-05-02T07:30:22.030Z,4.25
2023-05-02T07:32:49.441Z,5.75
2023-05-02T07:35:16.786Z,5.50
2023-05-02T07:37:44.177Z,5.50
2023-05-02T07:40:11.686Z,5.75
2023-05-02T07:42:41.221Z,7.00
2023-05-02T07:45:09.141Z,6.00
2023-05-02T07:47:36.812Z,4.60
2023-05-02T07:50:04.815Z,6.20
2023-05-02T07:52:32.123Z,4.80
2023-05-02T07:54:59.436Z,5.80
2023-05-02T07:57:27.109Z,4.40
2023-05-02T07:59:57.468Z,7.80
2023-05-02T08:02:26.422Z,5.50
2023-05-02T08:04:54.292Z,6.00
2023-05-02T08:07:21.707Z,5.50
2023-05-02T08:09:49.180Z,5.50
2023-05-02T08:12:16.450Z,4.75
2023-05-02T08:14:43.739Z,3.50
2023-05-02T08:17:11.224Z,8.75
2023-05-02T08:19:38.683Z,3.50
2023-05-02T08:22:07.153Z,4.00
2023-05-02T08:24:34.484Z,3.50
2023-05-02T08:27:03.968Z,4.75
2023-05-02T08:29:31.899Z,6.00
2023-05-02T08:31:59.205Z,4.00
2023-05-02T08:34:26.631Z,5.00
2023-05-02T08:36:54.438Z,5.00
2023-05-02T08:39:22.416Z,6.75
2023-05-02T08:41:50.486Z,4.50
2023-05-02T08:44:18.188Z,2.75
2023-05-02T08:46:46.666Z,4.00
2023-05-02T08:49:17.711Z,5.00
2023-05-02T08:51:46.962Z,5.75
2023-05-02T08:54:17.412Z,11.00
2023-05-02T08:56:45.290Z,3.50
2023-05-02T08:59:12.688Z,7.00
2023-05-02T09:01:44.952Z,5.75
2023-05-02T09:04:13.332Z,5.00
2023-05-02T09:06:41.712Z,4.00
2023-05-02T09:09:09.627Z,8.50
2023-05-02T09:11:38.502Z,7.00
2023-05-02T09:14:16.170Z,9.00
2023-05-02T09:16:45.299Z,5.50
2023-05-02T09:19:26.154Z,5.60
2023-05-02T09:21:59.405Z,6.50
2023-05-02T09:24:26.918Z,6.25
2023-05-02T09:27:05.674Z,3.50
2023-05-02T09:29:39.220Z,7.00
2023-05-02T09:32:07.418Z,3.25
2023-05-02T09:34:35.146Z,4.00
2023-05-02T09:37:05.731Z,4.75
2023-05-02T09:39:33.099Z,9.00
2023-05-02T09:42:01.400Z,5.00
2023-05-02T09:44:38.254Z,4.50
2023-05-02T09:47:07.144Z,5.25
2023-05-02T09:49:45.673Z,4.25
2023-05-02T09:52:15.604Z,6.00
2023-05-02T09:54:43.369Z,5.00
2023-05-02T09:57:11.497Z,4.75
2023-05-02T09:59:42.266Z,5.50
2023-05-02T10:02:12.098Z,9.00
2023-05-02T10:04:40.152Z,7.00
2023-05-02T10:07:10.799Z,6.25
2023-05-02T10:09:44.539Z,8.25
2023-05-02T10:12:15.341Z,4.75
2023-05-02T10:14:49.272Z,6.75
2023-05-02T10:17:28.518Z,7.00
2023-05-02T10:20:05.191Z,5.25
2023-05-02T10:22:34.700Z,7.00
2023-05-02T10:25:03.864Z,4.25
2023-05-02T10:27:32.570Z,5.00
2023-05-02T10:30:01.510Z,7.00
2023-05-02T10:32:29.762Z,7.75
2023-05-02T10:35:05.339Z,2.00
2023-05-02T10:37:35.301Z,6.25
2023-05-02T10:40:03.802Z,3.75
2023-05-02T10:42:31.806Z,11.00
2023-05-02T10:45:00.363Z,6.00
2023-05-02T10:47:28.578Z,4.25
2023-05-02T10:50:00.694Z,2.75
2023-05-02T10:52:39.040Z,2.25
2023-05-02T10:55:24.039Z,3.50
2023-05-02T10:58:06.813Z,4.75
2023-05-02T11:00:35.699Z,3.00
2023-05-02T11:03:03.608Z,3.00
2023-05-02T11:05:31.173Z,6.00
2023-05-02T11:08:18.648Z,7.50
2023-05-02T11:10:47.676Z,8.00
2023-05-02T11:13:15.022Z,3.00
2023-05-02T11:15:42.224Z,7.00
2023-05-02T11:18:14.387Z,1.25
2023-05-02T11:20:43.549Z,3.75
2023-05-02T11:23:17.374Z,6.00
2023-05-02T11:25:47.177Z,1.75
2023-05-02T11:28:48.724Z,4.50
2023-05-02T11:31:28.231Z,3.00
2023-05-02T11:34:03.122Z,3.25
2023-05-02T11:36:34.068Z,5.50
2023-05-02T11:39:06.341Z,4.00
2023-05-02T11:41:49.062Z,3.50
2023-05-02T11:44:16.730Z,5.25
2023-05-02T11:46:45.871Z,3.00
2023-05-02T11:49:15.222Z,3.75
2023-05-02T11:51:43.039Z,4.00
2023-05-02T11:54:17.083Z,4.50
2023-05-02T11:56:44.730Z,3.75
2023-05-02T11:59:13.671Z,4.25
2023-05-02T12:01:56.326Z,2.75
2023-05-02T12:04:26.006Z,4.75
2023-05-02T12:06:58.428Z,4.00
2023-05-02T12:09:26.506Z,4.00
2023-05-02T12:11:55.112Z,1.25
2023-05-02T12:14:33.814Z,2.75
2023-05-02T12:17:01.689Z,3.00
2023-05-02T12:19:29.577Z,4.00
2023-05-02T12:21:57.363Z,3.50
2023-05-02T12:24:24.694Z,3.50
2023-05-02T12:27:12.699Z,3.00
2023-05-02T12:29:44.981Z,4.25
2023-05-02T12:32:13.658Z,3.75
2023-05-02T12:34:42.823Z,4.00
2023-05-02T12:37:12.275Z,3.25
2023-05-02T12:39:41.929Z,2.50
2023-05-02T12:42:14.409Z,4.25
2023-05-02T12:44:46.767Z,5.75
2023-05-02T12:47:16.824Z,5.00
2023-05-02T12:49:51.390Z,4.00
2023-05-02T12:52:20.049Z,4.25
2023-05-02T12:54:47.431Z,5.50
2023-05-02T12:57:27.035Z,6.75
2023-05-02T12:59:54.771Z,5.50
2023-05-02T13:02:22.903Z,4.00
2023-05-02T13:04:50.476Z,4.00
2023-05-02T13:07:18.219Z,3.00
2023-05-02T13:09:45.515Z,1.00
2023-05-02T13:12:12.845Z,4.25
2023-05-02T13:14:40.245Z,4.75
2023-05-02T13:17:08.986Z,6.75
2023-05-02T13:19:38.686Z,4.75
2023-05-02T13:22:06.185Z,3.75
2023-05-02T13:24:33.555Z,6.00
2023-05-02T13:27:02.083Z,3.75
2023-05-02T13:29:29.374Z,3.50
2023-05-02T13:31:56.648Z,4.00
2023-05-02T13:34:23.916Z,3.00
2023-05-02T13:36:51.234Z,4.75
2023-05-02T13:39:18.803Z,4.20
2023-05-02T13:41:46.109Z,3.00
2023-05-02T13:44:13.304Z,3.40
2023-05-02T13:46:40.792Z,3.00
2023-05-02T13:49:08.148Z,4.20
2023-05-02T13:51:35.680Z,4.00
2023-05-02T13:54:03.175Z,3.80
2023-05-02T13:56:30.543Z,3.60
2023-05-02T13:58:57.924Z,3.00
2023-05-02T14:01:28.538Z,2.60
2023-05-02T14:03:56.016Z,1.20
2023-05-02T14:06:23.382Z,2.00
2023-05-02T14:08:53.669Z,4.00
2023-05-02T14:11:20.847Z,2.60
2023-05-02T14:13:48.363Z,1.80
2023-05-02T14:16:16.025Z,2.00
2023-05-02T14:18:45.866Z,0.80
2023-05-02T14:21:13.368Z,1.00
2023-05-02T14:23:41.363Z,1.00
2023-05-02T14:26:09.290Z,1.00
2023-05-02T14:28:39.117Z,0.00
2023-05-02T14:31:08.221Z,0.20
2023-05-02T14:33:35.960Z,0.00
2023-05-02T14:36:04.259Z,0.00
2023-05-02T14:38:31.639Z,1.00
2023-05-02T14:40:59.219Z,0.80
2023-05-02T14:43:27.843Z,0.00
2023-05-02T14:45:56.624Z,1.00
2023-05-02T14:48:24.183Z,0.60
2023-05-02T14:50:51.783Z,0.00
2023-05-02T14:53:20.318Z,0.00
2023-05-02T14:55:47.720Z,1.00
2023-05-02T14:58:20.740Z,0.00
2023-05-02T15:00:48.548Z,0.00
2023-05-02T15:03:16.010Z,0.00
2023-05-02T15:05:43.496Z,0.00
2023-05-02T15:08:11.029Z,0.00
2023-05-02T15:10:41.457Z,0.00
2023-05-02T15:13:09.130Z,0.00
2023-05-02T15:15:37.743Z,0.00
2023-05-02T15:18:05.284Z,0.00
2023-05-02T15:20:32.626Z,0.00
2023-05-02T15:23:03.772Z,0.00
2023-05-02T15:25:31.991Z,0.00
2023-05-02T15:27:59.480Z,0.00
2023-05-02T15:30:26.824Z,0.00
2023-05-02T15:32:54.327Z,0.00
2023-05-02T15:35:21.744Z,0.00
2023-05-02T15:37:49.033Z,0.00
2023-05-02T15:40:16.399Z,0.00
2023-05-02T15:42:43.662Z,0.00
2023-05-02T15:45:14.154Z,0.00
2023-05-02T15:47:42.012Z,0.00
2023-05-02T15:50:10.940Z,0.80
2023-05-02T15:52:38.259Z,0.00
2023-05-02T15:55:05.989Z,0.00
2023-05-02T15:57:33.403Z,0.00
2023-05-02T16:00:00.963Z,0.00
2023-05-02T16:02:31.731Z,0.00
2023-05-02T16:04:58.968Z,0.00
2023-05-02T16:07:26.225Z,0.00
2023-05-02T16:09:53.592Z,0.00
2023-05-02T16:12:20.904Z,0.00
2023-05-02T16:14:48.327Z,0.00
2023-05-02T16:17:15.595Z,0.00
2023-05-02T16:19:43.032Z,0.00
2023-05-02T16:22:10.547Z,0.00
2023-05-02T16:24:37.819Z,0.00
2023-05-02T16:27:05.239Z,0.00
2023-05-02T16:29:32.643Z,0.00
2023-05-02T16:32:00.161Z,0.00
2023-05-02T16:34:31.303Z,0.00
2023-05-02T16:36:58.753Z,0.00
2023-05-02T16:39:26.938Z,0.00
2023-05-02T16:41:54.260Z,0.00
2023-05-02T16:44:21.515Z,0.00
2023-05-02T16:46:48.735Z,0.00
2023-05-02T16:49:16.015Z,0.00
2023-05-02T16:51:43.404Z,0.00
2023-05-02T16:54:11.273Z,0.00
2023-05-02T16:56:39.676Z,0.00
2023-05-02T16:59:08.138Z,0.00
2023-05-02T17:01:35.791Z,0.00
2023-05-02T17:04:03.159Z,0.20
2023-05-02T17:06:32.008Z,0.00
2023-05-02T17:08:59.549Z,0.00
2023-05-02T17:11:27.087Z,0.00
2023-05-02T17:13:54.837Z,0.00
2023-05-02T17:16:23.068Z,0.00
2023-05-02T17:18:50.484Z,0.80
2023-05-02T17:21:17.827Z,0.00
2023-05-02T17:23:45.454Z,0.00
2023-05-02T17:26:15.825Z,0.00
2023-05-02T17:28:45.124Z,0.00
2023-05-02T17:31:13.267Z,0.00
2023-05-02T17:33:42.387Z,0.00
2023-05-02T17:36:09.863Z,0.00
2023-05-02T17:38:37.006Z,0.00
2023-05-02T17:41:04.351Z,0.00
2023-05-02T17:43:31.498Z,0.00
2023-05-02T17:45:58.858Z,0.00
2023-05-02T17:48:28.165Z,0.00
2023-05-02T17:50:56.154Z,0.00
2023-05-02T17:53:23.395Z,0.00
2023-05-02T17:55:51.172Z,0.00
2023-05-02T17:58:18.798Z,0.00
2023-05-02T18:00:46.150Z,0.00
2023-05-02T18:03:13.501Z,0.00
2023-05-02T18:05:44.218Z,0.00
2023-05-02T18:08:11.561Z,0.00
2023-05-02T18:10:39.797Z,0.00
2023-05-02T18:13:07.392Z,0.00
2023-05-02T18:15:34.790Z,0.00
2023-05-02T18:18:02.223Z,0.00
2023-05-02T18:20:29.585Z,0.00
2023-05-02T18:22:59.226Z,0.00
2023-05-02T18:25:26.421Z,0.00
2023-05-02T18:27:53.644Z,0.00
2023-05-02T18:30:20.929Z,0.00
2023-05-02T18:32:48.215Z,0.00
2023-05-02T18:35:15.525Z,0.00
2023-05-02T18:37:42.723Z,0.00
2023-05-02T18:40:10.224Z,0.00
2023-05-02T18:42:37.627Z,0.00
2023-05-02T18:45:05.709Z,0.00
2023-05-02T18:47:33.832Z,0.00
2023-05-02T18:50:02.727Z,0.00
2023-05-02T18:52:33.500Z,0.00
2023-05-02T18:55:03.400Z,0.00
2023-05-02T18:57:30.973Z,0.00
2023-05-02T18:59:59.742Z,0.00
2023-05-02T19:02:27.490Z,1.00
2023-05-02T19:04:54.880Z,0.00
2023-05-02T19:07:22.056Z,0.00
2023-05-02T19:09:49.553Z,0.00
2023-05-02T19:12:16.823Z,0.00
2023-05-02T19:14:44.881Z,0.00
2023-05-02T19:17:12.092Z,0.00
2023-05-02T19:19:39.545Z,0.00
2023-05-02T19:22:06.862Z,0.00
2023-05-02T19:24:35.518Z,0.00
2023-05-02T19:27:06.984Z,0.00
2023-05-02T19:29:34.902Z,0.00
2023-05-02T19:32:02.926Z,0.00
2023-05-02T19:34:30.277Z,0.00
2023-05-02T19:36:57.441Z,0.00
2023-05-02T19:39:24.767Z,0.00
2023-05-02T19:41:52.089Z,0.00
2023-05-02T19:44:21.413Z,0.00
2023-05-02T19:46:49.127Z,0.00
2023-05-02T19:49:16.644Z,0.00
2023-05-02T19:51:44.046Z,0.00
2023-05-02T19:54:11.893Z,0.00
2023-05-02T19:56:39.562Z,0.00
2023-05-02T19:59:07.045Z,0.00
2023-05-02T20:01:34.685Z,1.40
2023-05-02T20:04:02.382Z,0.00
2023-05-02T20:06:31.785Z,1.00
2023-05-02T20:08:59.672Z,0.00
2023-05-02T20:11:27.123Z,0.00
2023-05-02T20:13:54.796Z,0.00
2023-05-02T20:16:22.395Z,0.80
2023-05-02T20:18:50.078Z,0.00
2023-05-02T20:21:17.763Z,0.00
2023-05-02T20:23:45.454Z,0.00
2023-05-02T20:26:14.380Z,0.00
2023-05-02T20:28:41.932Z,0.00
2023-05-02T20:31:09.482Z,0.00
2023-05-02T20:33:44.713Z,0.00
2023-05-02T20:36:15.105Z,0.00
2023-05-02T20:38:43.193Z,0.00
2023-05-02T20:41:15.895Z,0.00
2023-05-02T20:43:47.618Z,0.00
2023-05-02T20:46:19.351Z,0.00
2023-05-02T20:48:48.053Z,0.00
2023-05-02T20:51:16.334Z,0.00
2023-05-02T20:53:44.970Z,0.00
2023-05-02T20:56:12.483Z,0.00
2023-05-02T20:58:40.139Z,0.00
2023-05-02T21:01:07.772Z,0.00
2023-05-02T21:03:39.511Z,0.00
2023-05-02T21:06:07.737Z,0.00
2023-05-02T21:08:35.338Z,0.00
2023-05-02T21:11:02.924Z,0.00
2023-05-02T21:13:30.486Z,0.00
2023-05-02T21:15:58.069Z,0.00
2023-05-02T21:18:25.607Z,0.00
2023-05-02T21:20:53.049Z,0.00
2023-05-02T21:23:20.688Z,0.00
2023-05-02T21:25:48.221Z,0.00
2023-05-02T21:28:15.631Z,0.00
2023-05-02T21:30:43.179Z,0.00
2023-05-02T21:33:11.259Z,0.00
2023-05-02T21:35:38.739Z,0.60
2023-05-02T21:38:06.205Z,0.00
2023-05-02T21:40:35.834Z,0.00
2023-05-02T21:43:03.516Z,0.00
2023-05-02T21:45:31.090Z,0.00
2023-05-02T21:47:58.703Z,0.40
2023-05-02T21:50:26.358Z,0.00
2023-05-02T21:52:53.786Z,0.00
2023-05-02T21:55:21.364Z,0.20
2023-05-02T21:57:48.799Z,0.00
2023-05-02T22:00:16.380Z,0.00
2023-05-02T22:02:44.019Z,0.00
2023-05-02T22:05:11.840Z,0.00
2023-05-02T22:07:39.353Z,0.00
2023-05-02T22:10:07.338Z,0.00
2023-05-02T22:12:35.047Z,0.60
2023-05-02T22:15:05.895Z,0.00
2023-05-02T22:17:33.543Z,1.00
2023-05-02T22:20:02.879Z,0.00
2023-05-02T22:22:30.765Z,0.20
2023-05-02T22:24:58.285Z,1.00
2023-05-02T22:27:25.951Z,0.00
2023-05-02T22:29:53.344Z,0.00
2023-05-02T22:32:22.726Z,0.00
2023-05-02T22:34:50.424Z,0.00
2023-05-02T22:37:17.934Z,0.00
2023-05-02T22:39:45.313Z,0.00
2023-05-02T22:42:12.918Z,0.00
2023-05-02T22:44:52.949Z,0.00
2023-05-02T22:47:22.380Z,0.00
2023-05-02T22:49:51.346Z,0.00
2023-05-02T22:52:20.783Z,0.00
2023-05-02T22:54:48.345Z,0.00
2023-05-02T22:57:16.041Z,0.00
2023-05-02T22:59:43.558Z,0.40
2023-05-02T23:02:14.293Z,0.00
2023-05-02T23:04:41.837Z,0.00
2023-05-02T23:07:09.423Z,0.00
2023-05-02T23:09:36.976Z,0.00
2023-05-02T23:12:05.901Z,0.00
2023-05-02T23:14:33.564Z,0.00
2023-05-02T23:17:03.372Z,0.00
2023-05-02T23:19:30.963Z,0.00
2023-05-02T23:21:59.525Z,0.00
2023-05-02T23:24:27.787Z,0.00
2023-05-02T23:26:55.275Z,0.00
2023-05-02T23:29:23.932Z,0.00
2023-05-02T23:31:53.820Z,0.00
2023-05-02T23:34:22.137Z,0.00
2023-05-02T23:36:51.297Z,0.00
2023-05-02T23:39:18.822Z,0.00
2023-05-02T23:41:46.255Z,0.00
2023-05-02T23:44:13.775Z,0.40
2023-05-02T23:46:41.359Z,0.00
2023-05-02T23:49:09.022Z,0.00
2023-05-02T23:51:37.937Z,0.00
2023-05-02T23:54:05.590Z,0.00
2023-05-02T23:56:33.063Z,0.00
2023-05-02T23:59:00.600Z,0.00
